KMLS/MLS METAR and TAF weather

Enter ICAO airport designator
Station Type Date Time Source
KMLS METAR 2020/07/12 01:53 UTC NOAA

KMLS 120153Z AUTO 07005KT 10SM CLR 28/09 A3002 RMK AO2 SLP148 T02780089


Station Type Date Time Source
KMLS Decoded METAR 2020/07/12 01:53 UTC NOAA

MILES CITY WILEY FIELD, MT, United States (KMLS) 46-26N 105-53W 801M
Jul 11, 2020 - 09:53 PM EDT / 2020.07.12 0153 UTC
Wind: from the ENE (070 degrees) at 6 MPH (5 KT):0
Visibility: 10 mile(s):0
Sky conditions: clear
Temperature: 82.0 F (27.8 C)
Dew Point: 48.0 F (8.9 C)
Relative Humidity: 30%
Pressure (altimeter): 30.02 in. Hg (1016 hPa)
ob: KMLS 120153Z AUTO 07005KT 10SM CLR 28/09 A3002 RMK AO2 SLP148 T02780089
cycle: 2

Station Type Date Time Source
KMLS TAF 2020/07/11 18:22 UTC NOAA

TAF KMLS 111720Z 1118/1218 27005KT P6SM SKC
FM120200 11007KT P6SM SKC
FM120700 16011KT P6SM SKC

Example: see airport list